sensor_id;sensor_type;location;lat;lon;timestamp;temperature;humidity
59881;DHT22;45751;51.380;10.326;2023-12-20T00:01:48;4.00;99.90
59881;DHT22;45751;51.380;10.326;2023-12-20T00:04:14;4.00;99.90
59881;DHT22;45751;51.380;10.326;2023-12-20T00:06:40;4.00;99.90
59881;DHT22;45751;51.380;10.326;2023-12-20T00:09:06;4.00;99.90
59881;DHT22;45751;51.380;10.326;2023-12-20T00:11:31;4.00;99.90
59881;DHT22;45751;51.380;10.326;2023-12-20T00:13:57;4.00;99.90
59881;DHT22;45751;51.380;10.326;2023-12-20T00:16:23;4.00;99.90
59881;DHT22;45751;51.380;10.326;2023-12-20T00:18:48;4.10;99.90
59881;DHT22;45751;51.380;10.326;2023-12-20T00:21:14;4.20;99.90
59881;DHT22;45751;51.380;10.326;2023-12-20T00:23:40;4.00;99.90
59881;DHT22;45751;51.380;10.326;2023-12-20T00:26:06;4.10;99.90
59881;DHT22;45751;51.380;10.326;2023-12-20T00:28:31;4.00;99.90
59881;DHT22;45751;51.380;10.326;2023-12-20T00:30:57;4.10;99.90
59881;DHT22;45751;51.380;10.326;2023-12-20T00:33:23;4.10;99.90
59881;DHT22;45751;51.380;10.326;2023-12-20T00:35:49;4.00;99.90
59881;DHT22;45751;51.380;10.326;2023-12-20T00:38:15;4.10;99.90
59881;DHT22;45751;51.380;10.326;2023-12-20T00:40:40;4.10;99.90
59881;DHT22;45751;51.380;10.326;2023-12-20T00:43:06;4.10;99.90
59881;DHT22;45751;51.380;10.326;2023-12-20T00:45:32;4.20;99.90
59881;DHT22;45751;51.380;10.326;2023-12-20T00:47:57;4.10;99.90
59881;DHT22;45751;51.380;10.326;2023-12-20T00:50:24;4.10;99.90
59881;DHT22;45751;51.380;10.326;2023-12-20T00:52:50;4.10;99.90
59881;DHT22;45751;51.380;10.326;2023-12-20T00:55:16;4.10;99.90
59881;DHT22;45751;51.380;10.326;2023-12-20T00:57:42;4.10;99.90
59881;DHT22;45751;51.380;10.326;2023-12-20T01:00:08;4.10;99.90
59881;DHT22;45751;51.380;10.326;2023-12-20T01:02:36;4.10;99.90
59881;DHT22;45751;51.380;10.326;2023-12-20T01:05:02;4.10;99.90
59881;DHT22;45751;51.380;10.326;2023-12-20T01:07:28;4.10;99.90
59881;DHT22;45751;51.380;10.326;2023-12-20T01:09:54;4.10;99.90
59881;DHT22;45751;51.380;10.326;2023-12-20T01:12:19;4.10;99.90
59881;DHT22;45751;51.380;10.326;2023-12-20T01:14:48;4.10;99.90
59881;DHT22;45751;51.380;10.326;2023-12-20T01:17:13;4.10;99.90
59881;DHT22;45751;51.380;10.326;2023-12-20T01:19:39;4.10;99.90
59881;DHT22;45751;51.380;10.326;2023-12-20T01:22:05;4.10;99.90
59881;DHT22;45751;51.380;10.326;2023-12-20T01:24:31;4.20;99.90
59881;DHT22;45751;51.380;10.326;2023-12-20T01:26:56;4.10;99.90
59881;DHT22;45751;51.380;10.326;2023-12-20T01:29:22;4.10;99.90
59881;DHT22;45751;51.380;10.326;2023-12-20T01:31:48;4.20;99.90
59881;DHT22;45751;51.380;10.326;2023-12-20T01:34:13;4.10;99.90
59881;DHT22;45751;51.380;10.326;2023-12-20T01:36:39;4.20;99.90
59881;DHT22;45751;51.380;10.326;2023-12-20T01:39:05;4.20;99.90
59881;DHT22;45751;51.380;10.326;2023-12-20T01:41:30;4.10;99.90
59881;DHT22;45751;51.380;10.326;2023-12-20T01:43:56;4.20;99.90
59881;DHT22;45751;51.380;10.326;2023-12-20T01:46:22;4.10;99.90
59881;DHT22;45751;51.380;10.326;2023-12-20T01:48:48;4.10;99.90
59881;DHT22;45751;51.380;10.326;2023-12-20T01:51:14;4.10;99.90
59881;DHT22;45751;51.380;10.326;2023-12-20T01:53:41;4.20;99.90
59881;DHT22;45751;51.380;10.326;2023-12-20T01:56:08;4.20;99.90
59881;DHT22;45751;51.380;10.326;2023-12-20T01:58:39;4.20;99.90
59881;DHT22;45751;51.380;10.326;2023-12-20T02:01:07;4.20;99.90
59881;DHT22;45751;51.380;10.326;2023-12-20T02:03:33;4.20;99.90
59881;DHT22;45751;51.380;10.326;2023-12-20T02:06:03;4.20;99.90
59881;DHT22;45751;51.380;10.326;2023-12-20T02:08:29;4.20;99.90
59881;DHT22;45751;51.380;10.326;2023-12-20T02:10:55;4.20;99.90
59881;DHT22;45751;51.380;10.326;2023-12-20T02:13:21;4.20;99.90
59881;DHT22;45751;51.380;10.326;2023-12-20T02:15:47;4.20;99.90
59881;DHT22;45751;51.380;10.326;2023-12-20T02:18:13;4.20;99.90
59881;DHT22;45751;51.380;10.326;2023-12-20T02:20:41;4.20;99.90
59881;DHT22;45751;51.380;10.326;2023-12-20T02:23:06;4.30;99.90
59881;DHT22;45751;51.380;10.326;2023-12-20T02:25:32;4.20;99.90
59881;DHT22;45751;51.380;10.326;2023-12-20T02:27:58;4.30;99.90
59881;DHT22;45751;51.380;10.326;2023-12-20T02:30:23;4.30;99.90
59881;DHT22;45751;51.380;10.326;2023-12-20T02:32:50;4.30;99.90
59881;DHT22;45751;51.380;10.326;2023-12-20T02:35:15;4.30;99.90
59881;DHT22;45751;51.380;10.326;2023-12-20T02:37:41;4.30;99.90
59881;DHT22;45751;51.380;10.326;2023-12-20T02:40:07;4.30;99.90
59881;DHT22;45751;51.380;10.326;2023-12-20T02:42:33;4.30;99.90
59881;DHT22;45751;51.380;10.326;2023-12-20T02:44:59;4.40;99.90
59881;DHT22;45751;51.380;10.326;2023-12-20T02:47:24;4.40;99.90
59881;DHT22;45751;51.380;10.326;2023-12-20T02:49:50;4.40;99.90
59881;DHT22;45751;51.380;10.326;2023-12-20T02:52:16;4.40;99.90
59881;DHT22;45751;51.380;10.326;2023-12-20T02:54:41;4.40;99.90
59881;DHT22;45751;51.380;10.326;2023-12-20T02:57:08;4.40;99.90
59881;DHT22;45751;51.380;10.326;2023-12-20T02:59:33;4.40;99.90
59881;DHT22;45751;51.380;10.326;2023-12-20T03:01:59;4.40;99.90
59881;DHT22;45751;51.380;10.326;2023-12-20T03:04:25;4.30;99.90
59881;DHT22;45751;51.380;10.326;2023-12-20T03:06:50;4.30;99.90
59881;DHT22;45751;51.380;10.326;2023-12-20T03:09:16;4.30;99.90
59881;DHT22;45751;51.380;10.326;2023-12-20T03:11:42;4.30;99.90
59881;DHT22;45751;51.380;10.326;2023-12-20T03:14:07;4.30;99.90
59881;DHT22;45751;51.380;10.326;2023-12-20T03:16:33;4.30;99.90
59881;DHT22;45751;51.380;10.326;2023-12-20T03:18:59;4.20;99.90
59881;DHT22;45751;51.380;10.326;2023-12-20T03:21:25;4.30;99.90
59881;DHT22;45751;51.380;10.326;2023-12-20T03:23:50;4.30;99.90
59881;DHT22;45751;51.380;10.326;2023-12-20T03:26:16;4.30;99.90
59881;DHT22;45751;51.380;10.326;2023-12-20T03:28:42;4.30;99.90
59881;DHT22;45751;51.380;10.326;2023-12-20T03:31:09;4.20;99.90
59881;DHT22;45751;51.380;10.326;2023-12-20T03:33:35;4.20;99.90
59881;DHT22;45751;51.380;10.326;2023-12-20T03:36:01;4.20;99.90
59881;DHT22;45751;51.380;10.326;2023-12-20T03:38:27;4.20;99.90
59881;DHT22;45751;51.380;10.326;2023-12-20T03:40:52;4.20;99.90
59881;DHT22;45751;51.380;10.326;2023-12-20T03:43:18;4.20;99.90
59881;DHT22;45751;51.380;10.326;2023-12-20T03:45:44;4.20;99.90
59881;DHT22;45751;51.380;10.326;2023-12-20T03:48:09;4.20;99.90
59881;DHT22;45751;51.380;10.326;2023-12-20T03:50:35;4.20;99.90
59881;DHT22;45751;51.380;10.326;2023-12-20T03:53:01;4.10;99.90
59881;DHT22;45751;51.380;10.326;2023-12-20T03:55:27;4.10;99.90
59881;DHT22;45751;51.380;10.326;2023-12-20T03:57:53;4.10;99.90
59881;DHT22;45751;51.380;10.326;2023-12-20T04:00:19;4.10;99.90
59881;DHT22;45751;51.380;10.326;2023-12-20T04:02:45;4.10;99.90
59881;DHT22;45751;51.380;10.326;2023-12-20T04:05:10;4.10;99.90
59881;DHT22;45751;51.380;10.326;2023-12-20T04:07:36;4.10;99.90
59881;DHT22;45751;51.380;10.326;2023-12-20T04:10:03;4.10;99.90
59881;DHT22;45751;51.380;10.326;2023-12-20T04:12:32;4.10;99.90
59881;DHT22;45751;51.380;10.326;2023-12-20T04:14:58;4.10;99.90
59881;DHT22;45751;51.380;10.326;2023-12-20T04:17:24;4.10;99.90
59881;DHT22;45751;51.380;10.326;2023-12-20T04:19:50;4.10;99.90
59881;DHT22;45751;51.380;10.326;2023-12-20T04:22:17;4.10;99.90
59881;DHT22;45751;51.380;10.326;2023-12-20T04:24:43;4.10;99.90
59881;DHT22;45751;51.380;10.326;2023-12-20T04:27:09;4.10;99.90
59881;DHT22;45751;51.380;10.326;2023-12-20T04:29:35;4.10;99.90
59881;DHT22;45751;51.380;10.326;2023-12-20T04:32:01;4.10;99.90
59881;DHT22;45751;51.380;10.326;2023-12-20T04:34:27;4.10;99.90
59881;DHT22;45751;51.380;10.326;2023-12-20T04:36:53;4.10;99.90
59881;DHT22;45751;51.380;10.326;2023-12-20T04:39:19;4.10;99.90
59881;DHT22;45751;51.380;10.326;2023-12-20T04:41:44;4.10;99.90
59881;DHT22;45751;51.380;10.326;2023-12-20T04:44:10;4.10;99.90
59881;DHT22;45751;51.380;10.326;2023-12-20T04:46:36;4.10;99.90
59881;DHT22;45751;51.380;10.326;2023-12-20T04:49:01;4.10;99.90
59881;DHT22;45751;51.380;10.326;2023-12-20T04:51:27;4.10;99.90
59881;DHT22;45751;51.380;10.326;2023-12-20T04:53:53;4.10;99.90
59881;DHT22;45751;51.380;10.326;2023-12-20T04:56:19;4.10;99.90
59881;DHT22;45751;51.380;10.326;2023-12-20T04:58:44;4.10;99.90
59881;DHT22;45751;51.380;10.326;2023-12-20T05:01:10;4.10;99.90
59881;DHT22;45751;51.380;10.326;2023-12-20T05:03:37;4.00;99.90
59881;DHT22;45751;51.380;10.326;2023-12-20T05:06:03;4.00;99.90
59881;DHT22;45751;51.380;10.326;2023-12-20T05:08:29;4.00;99.90
59881;DHT22;45751;51.380;10.326;2023-12-20T05:10:55;4.00;99.90
59881;DHT22;45751;51.380;10.326;2023-12-20T05:13:21;4.00;99.90
59881;DHT22;45751;51.380;10.326;2023-12-20T05:15:46;4.00;99.90
59881;DHT22;45751;51.380;10.326;2023-12-20T05:18:13;4.00;99.90
59881;DHT22;45751;51.380;10.326;2023-12-20T05:20:39;4.00;99.90
59881;DHT22;45751;51.380;10.326;2023-12-20T05:23:05;4.00;99.90
59881;DHT22;45751;51.380;10.326;2023-12-20T05:25:31;4.00;99.90
59881;DHT22;45751;51.380;10.326;2023-12-20T05:27:56;4.00;99.90
59881;DHT22;45751;51.380;10.326;2023-12-20T05:30:22;4.00;99.90
59881;DHT22;45751;51.380;10.326;2023-12-20T05:32:48;4.00;99.90
59881;DHT22;45751;51.380;10.326;2023-12-20T05:35:14;4.00;99.90
59881;DHT22;45751;51.380;10.326;2023-12-20T05:37:41;4.00;99.90
59881;DHT22;45751;51.380;10.326;2023-12-20T05:40:07;4.10;99.90
59881;DHT22;45751;51.380;10.326;2023-12-20T05:42:36;4.10;99.90
59881;DHT22;45751;51.380;10.326;2023-12-20T05:45:02;4.10;99.90
59881;DHT22;45751;51.380;10.326;2023-12-20T05:47:28;4.10;99.90
59881;DHT22;45751;51.380;10.326;2023-12-20T05:49:54;4.10;99.90
59881;DHT22;45751;51.380;10.326;2023-12-20T05:52:19;4.10;99.90
59881;DHT22;45751;51.380;10.326;2023-12-20T05:54:45;4.10;99.90
59881;DHT22;45751;51.380;10.326;2023-12-20T05:57:11;4.10;99.90
59881;DHT22;45751;51.380;10.326;2023-12-20T05:59:36;4.10;99.90
59881;DHT22;45751;51.380;10.326;2023-12-20T06:02:03;4.10;99.90
59881;DHT22;45751;51.380;10.326;2023-12-20T06:04:29;4.10;99.90
59881;DHT22;45751;51.380;10.326;2023-12-20T06:06:55;4.10;99.90
59881;DHT22;45751;51.380;10.326;2023-12-20T06:09:21;4.10;99.90
59881;DHT22;45751;51.380;10.326;2023-12-20T06:11:46;4.10;99.90
59881;DHT22;45751;51.380;10.326;2023-12-20T06:14:12;4.10;99.90
59881;DHT22;45751;51.380;10.326;2023-12-20T06:16:38;4.10;99.90
59881;DHT22;45751;51.380;10.326;2023-12-20T06:19:04;4.10;99.90
59881;DHT22;45751;51.380;10.326;2023-12-20T06:21:29;4.10;99.90
59881;DHT22;45751;51.380;10.326;2023-12-20T06:23:55;4.00;99.90
59881;DHT22;45751;51.380;10.326;2023-12-20T06:26:21;4.00;99.90
59881;DHT22;45751;51.380;10.326;2023-12-20T06:28:46;3.90;99.90
59881;DHT22;45751;51.380;10.326;2023-12-20T06:31:12;3.90;99.90
59881;DHT22;45751;51.380;10.326;2023-12-20T06:33:38;3.90;99.90
59881;DHT22;45751;51.380;10.326;2023-12-20T06:36:06;3.90;99.90
59881;DHT22;45751;51.380;10.326;2023-12-20T06:38:32;3.90;99.90
59881;DHT22;45751;51.380;10.326;2023-12-20T06:40:58;3.90;99.90
59881;DHT22;45751;51.380;10.326;2023-12-20T06:43:24;3.90;99.90
59881;DHT22;45751;51.380;10.326;2023-12-20T06:45:49;3.90;99.90
59881;DHT22;45751;51.380;10.326;2023-12-20T06:48:16;3.90;99.90
59881;DHT22;45751;51.380;10.326;2023-12-20T06:50:42;3.90;99.90
59881;DHT22;45751;51.380;10.326;2023-12-20T06:53:07;4.00;99.90
59881;DHT22;45751;51.380;10.326;2023-12-20T06:55:38;3.90;99.90
59881;DHT22;45751;51.380;10.326;2023-12-20T06:58:04;4.00;99.90
59881;DHT22;45751;51.380;10.326;2023-12-20T07:00:30;4.00;99.90
59881;DHT22;45751;51.380;10.326;2023-12-20T07:02:56;4.00;99.90
59881;DHT22;45751;51.380;10.326;2023-12-20T07:05:22;4.00;99.90
59881;DHT22;45751;51.380;10.326;2023-12-20T07:07:48;4.00;99.90
59881;DHT22;45751;51.380;10.326;2023-12-20T07:10:14;4.10;99.90
59881;DHT22;45751;51.380;10.326;2023-12-20T07:12:39;4.10;99.90
59881;DHT22;45751;51.380;10.326;2023-12-20T07:15:05;4.10;99.90
59881;DHT22;45751;51.380;10.326;2023-12-20T07:17:33;4.10;99.90
59881;DHT22;45751;51.380;10.326;2023-12-20T07:19:59;4.10;99.90
59881;DHT22;45751;51.380;10.326;2023-12-20T07:22:29;4.10;99.90
59881;DHT22;45751;51.380;10.326;2023-12-20T07:24:57;4.10;99.90
59881;DHT22;45751;51.380;10.326;2023-12-20T07:27:23;4.10;99.90
59881;DHT22;45751;51.380;10.326;2023-12-20T07:29:49;4.20;99.90
59881;DHT22;45751;51.380;10.326;2023-12-20T07:32:16;4.10;99.90
59881;DHT22;45751;51.380;10.326;2023-12-20T07:34:42;4.10;99.90
59881;DHT22;45751;51.380;10.326;2023-12-20T07:37:08;4.10;99.90
59881;DHT22;45751;51.380;10.326;2023-12-20T07:39:36;4.10;99.90
59881;DHT22;45751;51.380;10.326;2023-12-20T07:42:01;4.10;99.90
59881;DHT22;45751;51.380;10.326;2023-12-20T07:44:27;4.20;99.90
59881;DHT22;45751;51.380;10.326;2023-12-20T07:46:53;4.10;99.90
59881;DHT22;45751;51.380;10.326;2023-12-20T07:49:19;4.10;99.90
59881;DHT22;45751;51.380;10.326;2023-12-20T07:51:45;4.10;99.90
59881;DHT22;45751;51.380;10.326;2023-12-20T07:54:10;4.10;99.90
59881;DHT22;45751;51.380;10.326;2023-12-20T07:56:36;4.10;99.90
59881;DHT22;45751;51.380;10.326;2023-12-20T07:59:02;4.10;99.90
59881;DHT22;45751;51.380;10.326;2023-12-20T08:01:27;4.10;99.90
59881;DHT22;45751;51.380;10.326;2023-12-20T08:03:53;4.10;99.90
59881;DHT22;45751;51.380;10.326;2023-12-20T08:06:19;4.10;99.90
59881;DHT22;45751;51.380;10.326;2023-12-20T08:08:45;4.10;99.90
59881;DHT22;45751;51.380;10.326;2023-12-20T08:11:10;4.10;99.90
59881;DHT22;45751;51.380;10.326;2023-12-20T08:13:36;4.10;99.90
59881;DHT22;45751;51.380;10.326;2023-12-20T08:16:02;4.10;99.90
59881;DHT22;45751;51.380;10.326;2023-12-20T08:18:28;4.10;99.90
59881;DHT22;45751;51.380;10.326;2023-12-20T08:20:54;4.10;99.90
59881;DHT22;45751;51.380;10.326;2023-12-20T08:23:20;4.10;99.90
59881;DHT22;45751;51.380;10.326;2023-12-20T08:25:49;4.10;99.90
59881;DHT22;45751;51.380;10.326;2023-12-20T08:28:15;4.10;99.90
59881;DHT22;45751;51.380;10.326;2023-12-20T08:30:41;4.20;99.90
59881;DHT22;45751;51.380;10.326;2023-12-20T08:33:07;4.20;99.90
59881;DHT22;45751;51.380;10.326;2023-12-20T08:35:36;4.20;99.90
59881;DHT22;45751;51.380;10.326;2023-12-20T08:38:02;4.00;99.90
59881;DHT22;45751;51.380;10.326;2023-12-20T08:40:29;4.20;99.90
59881;DHT22;45751;51.380;10.326;2023-12-20T08:42:55;4.20;99.90
59881;DHT22;45751;51.380;10.326;2023-12-20T08:45:21;4.20;99.90
59881;DHT22;45751;51.380;10.326;2023-12-20T08:47:47;4.20;99.90
59881;DHT22;45751;51.380;10.326;2023-12-20T08:50:13;4.20;99.90
59881;DHT22;45751;51.380;10.326;2023-12-20T08:52:38;4.30;99.90
59881;DHT22;45751;51.380;10.326;2023-12-20T08:55:04;4.30;99.90
59881;DHT22;45751;51.380;10.326;2023-12-20T08:57:30;4.30;99.90
59881;DHT22;45751;51.380;10.326;2023-12-20T08:59:57;4.30;99.90
59881;DHT22;45751;51.380;10.326;2023-12-20T09:02:23;4.30;99.90
59881;DHT22;45751;51.380;10.326;2023-12-20T09:04:49;4.40;99.90
59881;DHT22;45751;51.380;10.326;2023-12-20T09:07:24;4.40;99.90
59881;DHT22;45751;51.380;10.326;2023-12-20T09:09:51;4.40;99.90
59881;DHT22;45751;51.380;10.326;2023-12-20T09:12:20;4.40;99.90
59881;DHT22;45751;51.380;10.326;2023-12-20T09:14:50;4.40;99.90
59881;DHT22;45751;51.380;10.326;2023-12-20T09:17:17;4.40;99.90
59881;DHT22;45751;51.380;10.326;2023-12-20T09:19:44;4.50;99.90
59881;DHT22;45751;51.380;10.326;2023-12-20T09:22:10;4.50;99.90
59881;DHT22;45751;51.380;10.326;2023-12-20T09:24:36;4.50;99.90
59881;DHT22;45751;51.380;10.326;2023-12-20T09:27:02;4.50;99.90
59881;DHT22;45751;51.380;10.326;2023-12-20T09:29:28;4.50;99.90
59881;DHT22;45751;51.380;10.326;2023-12-20T09:31:54;4.50;99.90
59881;DHT22;45751;51.380;10.326;2023-12-20T09:34:19;4.60;99.90
59881;DHT22;45751;51.380;10.326;2023-12-20T09:36:45;4.60;99.90
59881;DHT22;45751;51.380;10.326;2023-12-20T09:39:16;4.50;99.90
59881;DHT22;45751;51.380;10.326;2023-12-20T09:42:00;4.50;99.90
59881;DHT22;45751;51.380;10.326;2023-12-20T09:44:26;4.50;99.90
59881;DHT22;45751;51.380;10.326;2023-12-20T09:46:52;4.50;99.90
59881;DHT22;45751;51.380;10.326;2023-12-20T09:49:20;4.50;99.90
59881;DHT22;45751;51.380;10.326;2023-12-20T09:51:47;4.40;99.90
59881;DHT22;45751;51.380;10.326;2023-12-20T09:54:14;4.40;99.90
59881;DHT22;45751;51.380;10.326;2023-12-20T09:56:41;4.30;99.90
59881;DHT22;45751;51.380;10.326;2023-12-20T09:59:06;4.30;99.90
59881;DHT22;45751;51.380;10.326;2023-12-20T10:01:34;4.30;99.90
59881;DHT22;45751;51.380;10.326;2023-12-20T10:04:01;4.30;99.90
59881;DHT22;45751;51.380;10.326;2023-12-20T10:06:32;4.30;99.90
59881;DHT22;45751;51.380;10.326;2023-12-20T10:08:58;4.30;99.90
59881;DHT22;45751;51.380;10.326;2023-12-20T10:11:25;4.40;99.90
59881;DHT22;45751;51.380;10.326;2023-12-20T10:13:50;4.40;99.90
59881;DHT22;45751;51.380;10.326;2023-12-20T10:16:16;4.40;99.90
59881;DHT22;45751;51.380;10.326;2023-12-20T10:18:42;4.50;99.90
59881;DHT22;45751;51.380;10.326;2023-12-20T10:21:07;4.50;99.90
59881;DHT22;45751;51.380;10.326;2023-12-20T10:23:35;4.50;99.90
59881;DHT22;45751;51.380;10.326;2023-12-20T10:26:02;4.60;99.90
59881;DHT22;45751;51.380;10.326;2023-12-20T10:28:33;4.60;99.90
59881;DHT22;45751;51.380;10.326;2023-12-20T10:30:59;4.60;99.90
59881;DHT22;45751;51.380;10.326;2023-12-20T10:33:27;4.60;99.90
59881;DHT22;45751;51.380;10.326;2023-12-20T10:35:55;4.70;99.90
59881;DHT22;45751;51.380;10.326;2023-12-20T10:38:21;4.60;99.90
59881;DHT22;45751;51.380;10.326;2023-12-20T10:40:47;4.60;99.90
59881;DHT22;45751;51.380;10.326;2023-12-20T10:43:13;4.60;99.90
59881;DHT22;45751;51.380;10.326;2023-12-20T10:45:42;4.60;99.90
59881;DHT22;45751;51.380;10.326;2023-12-20T10:48:10;4.60;99.90
59881;DHT22;45751;51.380;10.326;2023-12-20T10:50:38;4.60;99.90
59881;DHT22;45751;51.380;10.326;2023-12-20T10:53:04;4.50;99.90
59881;DHT22;45751;51.380;10.326;2023-12-20T10:55:30;4.50;99.90
59881;DHT22;45751;51.380;10.326;2023-12-20T10:58:01;4.40;99.90
59881;DHT22;45751;51.380;10.326;2023-12-20T11:00:29;4.50;99.90
59881;DHT22;45751;51.380;10.326;2023-12-20T11:03:01;4.50;99.90
59881;DHT22;45751;51.380;10.326;2023-12-20T11:08:00;4.50;99.90
59881;DHT22;45751;51.380;10.326;2023-12-20T11:10:34;4.50;99.90
59881;DHT22;45751;51.380;10.326;2023-12-20T11:13:12;4.50;99.90
59881;DHT22;45751;51.380;10.326;2023-12-20T11:15:41;4.50;99.90
59881;DHT22;45751;51.380;10.326;2023-12-20T11:18:06;4.60;99.90
59881;DHT22;45751;51.380;10.326;2023-12-20T11:20:40;4.60;99.90
59881;DHT22;45751;51.380;10.326;2023-12-20T11:23:08;4.60;99.90
59881;DHT22;45751;51.380;10.326;2023-12-20T11:25:54;4.60;99.90
59881;DHT22;45751;51.380;10.326;2023-12-20T11:28:23;4.60;99.90
59881;DHT22;45751;51.380;10.326;2023-12-20T11:30:50;4.70;99.90
59881;DHT22;45751;51.380;10.326;2023-12-20T11:33:17;4.70;99.90
59881;DHT22;45751;51.380;10.326;2023-12-20T11:35:46;4.70;99.90
59881;DHT22;45751;51.380;10.326;2023-12-20T11:38:13;4.70;99.90
59881;DHT22;45751;51.380;10.326;2023-12-20T11:40:41;4.70;99.90
59881;DHT22;45751;51.380;10.326;2023-12-20T11:43:07;4.70;99.90
59881;DHT22;45751;51.380;10.326;2023-12-20T11:45:33;4.70;99.90
59881;DHT22;45751;51.380;10.326;2023-12-20T11:48:01;4.80;99.90
59881;DHT22;45751;51.380;10.326;2023-12-20T11:50:28;4.80;99.90
59881;DHT22;45751;51.380;10.326;2023-12-20T11:52:56;4.80;99.90
59881;DHT22;45751;51.380;10.326;2023-12-20T11:55:22;4.80;99.90
59881;DHT22;45751;51.380;10.326;2023-12-20T11:57:50;4.90;99.90
59881;DHT22;45751;51.380;10.326;2023-12-20T12:00:17;4.90;99.90
59881;DHT22;45751;51.380;10.326;2023-12-20T12:02:43;4.90;99.90
59881;DHT22;45751;51.380;10.326;2023-12-20T12:05:08;4.90;99.90
59881;DHT22;45751;51.380;10.326;2023-12-20T12:07:35;4.90;99.90
59881;DHT22;45751;51.380;10.326;2023-12-20T12:10:01;4.90;99.90
59881;DHT22;45751;51.380;10.326;2023-12-20T12:12:26;5.00;99.90
59881;DHT22;45751;51.380;10.326;2023-12-20T12:14:54;4.90;99.90
59881;DHT22;45751;51.380;10.326;2023-12-20T12:17:20;4.90;99.90
59881;DHT22;45751;51.380;10.326;2023-12-20T12:19:45;5.00;99.90
59881;DHT22;45751;51.380;10.326;2023-12-20T12:22:13;5.00;99.90
59881;DHT22;45751;51.380;10.326;2023-12-20T12:24:44;5.00;99.90
59881;DHT22;45751;51.380;10.326;2023-12-20T12:27:11;5.10;99.90
59881;DHT22;45751;51.380;10.326;2023-12-20T12:29:37;5.10;99.90
59881;DHT22;45751;51.380;10.326;2023-12-20T12:32:07;5.10;99.90
59881;DHT22;45751;51.380;10.326;2023-12-20T12:34:34;5.10;99.90
59881;DHT22;45751;51.380;10.326;2023-12-20T12:37:00;5.10;99.90
59881;DHT22;45751;51.380;10.326;2023-12-20T12:39:26;5.10;99.90
59881;DHT22;45751;51.380;10.326;2023-12-20T12:41:52;5.10;99.90
59881;DHT22;45751;51.380;10.326;2023-12-20T12:44:18;5.10;99.90
59881;DHT22;45751;51.380;10.326;2023-12-20T12:46:47;5.00;99.90
59881;DHT22;45751;51.380;10.326;2023-12-20T12:49:16;5.00;99.90
59881;DHT22;45751;51.380;10.326;2023-12-20T12:51:43;5.00;99.90
59881;DHT22;45751;51.380;10.326;2023-12-20T12:54:09;4.90;99.90
59881;DHT22;45751;51.380;10.326;2023-12-20T12:56:36;4.90;99.90
59881;DHT22;45751;51.380;10.326;2023-12-20T12:59:02;4.90;99.90
59881;DHT22;45751;51.380;10.326;2023-12-20T13:01:28;4.90;99.90
59881;DHT22;45751;51.380;10.326;2023-12-20T13:03:53;4.80;99.90
59881;DHT22;45751;51.380;10.326;2023-12-20T13:06:20;4.80;99.90
59881;DHT22;45751;51.380;10.326;2023-12-20T13:08:46;4.80;99.90
59881;DHT22;45751;51.380;10.326;2023-12-20T13:11:11;4.70;99.90
59881;DHT22;45751;51.380;10.326;2023-12-20T13:13:37;4.70;99.90
59881;DHT22;45751;51.380;10.326;2023-12-20T13:16:03;4.70;99.90
59881;DHT22;45751;51.380;10.326;2023-12-20T13:18:29;4.60;99.90
59881;DHT22;45751;51.380;10.326;2023-12-20T13:20:55;4.60;99.90
59881;DHT22;45751;51.380;10.326;2023-12-20T13:23:21;4.60;99.90
59881;DHT22;45751;51.380;10.326;2023-12-20T13:25:46;4.60;99.90
59881;DHT22;45751;51.380;10.326;2023-12-20T13:28:12;4.60;99.90
59881;DHT22;45751;51.380;10.326;2023-12-20T13:30:39;4.60;99.90
59881;DHT22;45751;51.380;10.326;2023-12-20T13:33:05;4.60;99.90
59881;DHT22;45751;51.380;10.326;2023-12-20T13:35:32;4.60;99.90
59881;DHT22;45751;51.380;10.326;2023-12-20T13:37:58;4.50;99.90
59881;DHT22;45751;51.380;10.326;2023-12-20T13:40:24;4.50;99.90
59881;DHT22;45751;51.380;10.326;2023-12-20T13:42:50;4.50;99.90
59881;DHT22;45751;51.380;10.326;2023-12-20T13:45:16;4.50;99.90
59881;DHT22;45751;51.380;10.326;2023-12-20T13:47:42;4.50;99.90
59881;DHT22;45751;51.380;10.326;2023-12-20T13:50:08;4.50;99.90
59881;DHT22;45751;51.380;10.326;2023-12-20T13:52:33;4.50;99.90
59881;DHT22;45751;51.380;10.326;2023-12-20T13:54:59;4.50;99.90
59881;DHT22;45751;51.380;10.326;2023-12-20T13:57:25;4.50;99.90
59881;DHT22;45751;51.380;10.326;2023-12-20T13:59:50;4.40;99.90
59881;DHT22;45751;51.380;10.326;2023-12-20T14:02:16;4.40;99.90
59881;DHT22;45751;51.380;10.326;2023-12-20T14:04:42;4.40;99.90
59881;DHT22;45751;51.380;10.326;2023-12-20T14:07:08;4.40;99.90
59881;DHT22;45751;51.380;10.326;2023-12-20T14:09:35;4.40;99.90
59881;DHT22;45751;51.380;10.326;2023-12-20T14:12:01;4.30;99.90
59881;DHT22;45751;51.380;10.326;2023-12-20T14:14:26;4.40;99.90
59881;DHT22;45751;51.380;10.326;2023-12-20T14:16:52;4.40;99.90
59881;DHT22;45751;51.380;10.326;2023-12-20T14:19:18;4.30;99.90
59881;DHT22;45751;51.380;10.326;2023-12-20T14:21:43;4.30;99.90
59881;DHT22;45751;51.380;10.326;2023-12-20T14:24:13;4.30;99.90
59881;DHT22;45751;51.380;10.326;2023-12-20T14:26:41;4.40;99.90
59881;DHT22;45751;51.380;10.326;2023-12-20T14:29:07;4.40;99.90
59881;DHT22;45751;51.380;10.326;2023-12-20T14:31:35;4.40;99.90
59881;DHT22;45751;51.380;10.326;2023-12-20T14:34:04;4.40;99.90
59881;DHT22;45751;51.380;10.326;2023-12-20T14:36:30;4.40;99.90
59881;DHT22;45751;51.380;10.326;2023-12-20T14:38:57;4.40;99.90
59881;DHT22;45751;51.380;10.326;2023-12-20T14:41:22;4.40;99.90
59881;DHT22;45751;51.380;10.326;2023-12-20T14:43:50;4.40;99.90
59881;DHT22;45751;51.380;10.326;2023-12-20T14:46:17;4.50;99.90
59881;DHT22;45751;51.380;10.326;2023-12-20T14:48:43;4.50;99.90
59881;DHT22;45751;51.380;10.326;2023-12-20T14:51:09;4.60;99.90
59881;DHT22;45751;51.380;10.326;2023-12-20T14:53:40;4.60;99.90
59881;DHT22;45751;51.380;10.326;2023-12-20T14:56:08;4.60;99.90
59881;DHT22;45751;51.380;10.326;2023-12-20T14:58:33;4.60;99.90
59881;DHT22;45751;51.380;10.326;2023-12-20T15:01:00;4.60;99.90
59881;DHT22;45751;51.380;10.326;2023-12-20T15:03:25;4.60;99.90
59881;DHT22;45751;51.380;10.326;2023-12-20T15:05:51;4.60;99.90
59881;DHT22;45751;51.380;10.326;2023-12-20T15:08:17;4.70;99.90
59881;DHT22;45751;51.380;10.326;2023-12-20T15:10:43;4.70;99.90
59881;DHT22;45751;51.380;10.326;2023-12-20T15:13:08;4.60;99.90
59881;DHT22;45751;51.380;10.326;2023-12-20T15:15:35;4.70;99.90
59881;DHT22;45751;51.380;10.326;2023-12-20T15:18:02;4.70;99.90
59881;DHT22;45751;51.380;10.326;2023-12-20T15:20:29;4.70;99.90
59881;DHT22;45751;51.380;10.326;2023-12-20T15:22:55;4.70;99.90
59881;DHT22;45751;51.380;10.326;2023-12-20T15:25:24;4.70;99.90
59881;DHT22;45751;51.380;10.326;2023-12-20T15:27:50;4.70;99.90